createdAt,value
2018-11-06T00:01:35.638Z,13.53
2018-11-06T00:04:05.023Z,21.27
2018-11-06T00:06:33.524Z,18.83
2018-11-06T00:09:01.877Z,17.43
2018-11-06T00:11:30.214Z,21.80
2018-11-06T00:13:58.555Z,20.73
2018-11-06T00:16:26.890Z,16.77
2018-11-06T00:18:55.218Z,17.13
2018-11-06T00:21:23.557Z,13.60
2018-11-06T00:23:51.914Z,13.17
2018-11-06T00:26:20.254Z,24.47
2018-11-06T00:28:48.573Z,20.53
2018-11-06T00:31:16.926Z,24.87
2018-11-06T00:33:45.254Z,18.47
2018-11-06T00:36:13.612Z,18.37
2018-11-06T00:38:41.947Z,13.73
2018-11-06T00:41:10.290Z,13.90
2018-11-06T00:43:38.626Z,13.97
2018-11-06T00:46:06.979Z,17.73
2018-11-06T00:48:35.299Z,13.67
2018-11-06T00:51:03.654Z,16.93
2018-11-06T00:53:31.979Z,26.17
2018-11-06T00:56:00.330Z,27.67
2018-11-06T00:58:28.649Z,26.53
2018-11-06T01:00:57.007Z,25.10
2018-11-06T01:03:30.680Z,23.13
2018-11-06T01:05:59.030Z,25.20
2018-11-06T01:08:27.362Z,30.37
2018-11-06T01:10:55.701Z,25.50
2018-11-06T01:13:24.032Z,25.83
2018-11-06T01:15:52.379Z,22.77
2018-11-06T01:18:20.706Z,21.63
2018-11-06T01:20:49.066Z,24.33
2018-11-06T01:23:17.394Z,23.87
2018-11-06T01:25:45.729Z,22.20
2018-11-06T01:28:14.053Z,19.33
2018-11-06T01:30:42.402Z,21.60
2018-11-06T01:33:10.735Z,21.77
2018-11-06T01:35:39.102Z,24.10
2018-11-06T01:38:07.442Z,22.10
2018-11-06T01:40:35.783Z,25.73
2018-11-06T01:43:04.248Z,21.23
2018-11-06T01:45:32.594Z,15.60
2018-11-06T01:48:00.914Z,14.53
2018-11-06T01:50:29.263Z,16.43
2018-11-06T01:52:57.585Z,17.27
2018-11-06T01:55:25.936Z,23.17
2018-11-06T01:57:54.276Z,21.27
2018-11-06T02:00:22.618Z,24.57
2018-11-06T02:02:50.941Z,26.30
2018-11-06T02:05:19.486Z,23.80
2018-11-06T02:07:48.991Z,31.43
2018-11-06T02:10:18.106Z,21.30
2018-11-06T02:12:47.062Z,16.83
2018-11-06T02:15:15.411Z,19.33
2018-11-06T02:17:44.538Z,15.23
2018-11-06T02:20:13.571Z,15.00
2018-11-06T02:22:42.942Z,19.87
2018-11-06T02:25:11.734Z,15.73
2018-11-06T02:27:40.106Z,14.40
2018-11-06T02:30:10.637Z,19.73
2018-11-06T02:32:38.992Z,16.53
2018-11-06T02:35:07.379Z,12.73
2018-11-06T02:37:35.821Z,14.07
2018-11-06T02:40:04.166Z,16.10
2018-11-06T02:42:32.527Z,22.57
2018-11-06T02:45:00.877Z,26.40
2018-11-06T02:47:29.223Z,25.40
2018-11-06T02:49:57.542Z,21.77
2018-11-06T02:52:25.895Z,16.10
2018-11-06T02:54:54.218Z,14.50
2018-11-06T02:57:22.564Z,17.73
2018-11-06T02:59:50.895Z,25.80
2018-11-06T03:02:19.265Z,32.43
2018-11-06T03:04:47.590Z,29.33
2018-11-06T03:07:15.957Z,25.97
2018-11-06T03:09:44.283Z,22.87
2018-11-06T03:12:12.639Z,23.60
2018-11-06T03:14:40.962Z,33.70
2018-11-06T03:17:09.294Z,29.90
2018-11-06T03:19:37.615Z,30.20
2018-11-06T03:22:05.967Z,31.57
2018-11-06T03:24:34.298Z,31.23
2018-11-06T03:27:02.706Z,29.07
2018-11-06T03:29:31.006Z,27.60
2018-11-06T03:31:59.366Z,29.17
2018-11-06T03:34:27.698Z,25.70
2018-11-06T03:36:56.050Z,28.03
2018-11-06T03:39:24.406Z,25.83
2018-11-06T03:41:52.738Z,24.73
2018-11-06T03:44:21.086Z,25.53
2018-11-06T03:46:49.434Z,26.57
2018-11-06T03:49:17.756Z,21.13
2018-11-06T03:51:46.094Z,18.27
2018-11-06T03:54:14.432Z,17.13
2018-11-06T03:56:42.805Z,28.67
2018-11-06T03:59:11.127Z,28.43
2018-11-06T04:01:39.574Z,32.47
2018-11-06T04:04:07.898Z,26.40
2018-11-06T04:06:36.246Z,22.60
2018-11-06T04:09:08.335Z,15.90
2018-11-06T04:11:36.671Z,15.97
2018-11-06T04:14:05.171Z,21.80
2018-11-06T04:16:33.503Z,19.77
2018-11-06T04:19:01.895Z,14.73
2018-11-06T04:21:38.456Z,14.80
2018-11-06T04:24:08.661Z,24.23
2018-11-06T04:26:37.811Z,22.27
2018-11-06T04:29:06.749Z,18.47
2018-11-06T04:31:35.974Z,26.67
2018-11-06T04:34:04.299Z,31.07
2018-11-06T04:36:32.658Z,25.77
2018-11-06T04:39:00.994Z,29.13
2018-11-06T04:41:29.345Z,24.27
2018-11-06T04:43:57.690Z,25.40
2018-11-06T04:46:26.047Z,17.27
2018-11-06T04:48:54.383Z,18.30
2018-11-06T04:51:22.738Z,25.80
2018-11-06T04:53:54.655Z,30.53
2018-11-06T04:56:23.028Z,30.37
2018-11-06T04:58:51.354Z,30.43
2018-11-06T05:01:19.690Z,37.37
2018-11-06T05:03:48.258Z,38.27
2018-11-06T05:06:17.751Z,34.87
2018-11-06T05:08:46.359Z,34.53
2018-11-06T05:11:15.026Z,31.37
2018-11-06T05:13:43.485Z,31.97
2018-11-06T05:16:11.812Z,29.00
2018-11-06T05:18:40.398Z,28.03
2018-11-06T05:21:08.730Z,33.47
2018-11-06T05:23:37.075Z,30.53
2018-11-06T05:26:05.506Z,26.13
2018-11-06T05:28:33.842Z,23.60
2018-11-06T05:31:02.175Z,19.43
2018-11-06T05:33:30.514Z,16.43
2018-11-06T05:35:58.846Z,18.23
2018-11-06T05:38:27.194Z,21.47
2018-11-06T05:41:01.613Z,21.10
2018-11-06T05:43:29.974Z,28.97
2018-11-06T05:45:58.310Z,30.47
2018-11-06T05:48:26.659Z,30.40
2018-11-06T05:50:54.971Z,30.53
2018-11-06T05:53:23.451Z,34.10
2018-11-06T05:55:51.696Z,31.20
2018-11-06T05:58:20.140Z,35.47
2018-11-06T06:00:48.744Z,30.60
2018-11-06T06:03:17.121Z,34.10
2018-11-06T06:05:45.458Z,27.80
2018-11-06T06:08:13.807Z,25.87
2018-11-06T06:10:42.134Z,22.17
2018-11-06T06:13:10.479Z,26.03
2018-11-06T06:15:38.805Z,21.70
2018-11-06T06:18:07.147Z,23.90
2018-11-06T06:20:35.474Z,21.00
2018-11-06T06:23:03.816Z,19.60
2018-11-06T06:25:32.142Z,16.67
2018-11-06T06:28:00.527Z,16.10
2018-11-06T06:30:28.859Z,12.30
2018-11-06T06:32:57.202Z,14.20
2018-11-06T06:35:25.518Z,15.93
2018-11-06T06:37:53.854Z,19.20
2018-11-06T06:40:22.182Z,13.50
2018-11-06T06:42:50.522Z,11.93
2018-11-06T06:45:19.663Z,11.17
2018-11-06T06:47:48.015Z,11.23
2018-11-06T06:50:18.362Z,10.07
2018-11-06T06:52:47.176Z,9.53
2018-11-06T06:55:16.141Z,15.60
2018-11-06T06:57:45.677Z,23.13
2018-11-06T07:00:16.918Z,22.70
2018-11-06T07:02:45.282Z,26.40
2018-11-06T07:05:15.007Z,22.67
2018-11-06T07:07:44.008Z,17.67
2018-11-06T07:10:14.297Z,15.57
2018-11-06T07:12:43.786Z,13.17
2018-11-06T07:15:13.105Z,11.47
2018-11-06T07:17:41.714Z,11.53
2018-11-06T07:20:12.444Z,14.37
2018-11-06T07:22:40.845Z,16.87
2018-11-06T07:25:10.518Z,13.87
2018-11-06T07:27:39.740Z,11.33
2018-11-06T07:30:11.167Z,14.47
2018-11-06T07:32:40.090Z,18.63
2018-11-06T07:35:09.128Z,24.90
2018-11-06T07:37:38.044Z,28.90
2018-11-06T07:40:07.149Z,30.57
2018-11-06T07:42:35.479Z,28.90
2018-11-06T07:45:03.890Z,31.20
2018-11-06T07:47:32.210Z,31.10
2018-11-06T07:50:00.593Z,31.60
2018-11-06T07:52:28.906Z,35.33
2018-11-06T07:54:57.549Z,32.00
2018-11-06T07:57:25.891Z,33.73
2018-11-06T07:59:54.275Z,32.07
2018-11-06T08:02:22.602Z,32.20
2018-11-06T08:04:51.258Z,31.10
2018-11-06T08:07:19.590Z,32.17
2018-11-06T08:09:47.947Z,32.30
2018-11-06T08:12:16.287Z,32.47
2018-11-06T08:14:44.722Z,31.23
2018-11-06T08:17:12.969Z,31.17
2018-11-06T08:19:41.319Z,32.93
2018-11-06T08:22:09.638Z,30.33
2018-11-06T08:24:37.974Z,27.43
2018-11-06T08:27:06.291Z,31.97
2018-11-06T08:29:34.641Z,31.43
2018-11-06T08:32:03.302Z,33.80
2018-11-06T08:34:31.382Z,30.50
2018-11-06T08:36:59.716Z,32.17
2018-11-06T08:39:28.071Z,31.50
2018-11-06T08:41:56.389Z,33.83
2018-11-06T08:44:24.750Z,33.13
2018-11-06T08:46:53.082Z,30.90
2018-11-06T08:49:21.418Z,29.77
2018-11-06T08:51:49.743Z,28.13
2018-11-06T08:54:18.162Z,33.07
2018-11-06T08:56:46.490Z,27.53
2018-11-06T08:59:14.833Z,29.80
2018-11-06T09:01:44.008Z,29.43
2018-11-06T09:04:12.358Z,28.07
2018-11-06T09:06:40.727Z,24.80
2018-11-06T09:09:09.932Z,28.37
2018-11-06T09:11:38.491Z,28.80
2018-11-06T09:14:06.886Z,27.80
2018-11-06T09:16:35.209Z,24.23
2018-11-06T09:19:03.567Z,27.87
2018-11-06T09:21:31.936Z,26.83
2018-11-06T09:24:00.306Z,27.27
2018-11-06T09:26:28.630Z,25.03
2018-11-06T09:28:57.165Z,25.20
2018-11-06T09:31:26.946Z,26.20
2018-11-06T09:33:55.349Z,25.13
2018-11-06T09:36:23.683Z,23.63
2018-11-06T09:38:52.027Z,22.67
2018-11-06T09:41:20.409Z,21.97
2018-11-06T09:43:48.778Z,23.37
2018-11-06T09:46:17.115Z,21.40
2018-11-06T09:48:45.467Z,21.40
2018-11-06T09:51:13.830Z,23.90
2018-11-06T09:53:42.157Z,20.50
2018-11-06T09:56:10.513Z,21.70
2018-11-06T09:58:38.842Z,20.37
2018-11-06T10:01:07.210Z,24.37
2018-11-06T10:03:35.537Z,21.17
2018-11-06T10:06:03.956Z,19.87
2018-11-06T10:08:32.235Z,21.60
2018-11-06T10:11:00.577Z,21.63
2018-11-06T10:13:29.619Z,20.30
2018-11-06T10:15:57.963Z,22.77
2018-11-06T10:18:26.307Z,22.50
2018-11-06T10:20:54.652Z,22.30
2018-11-06T10:23:23.032Z,22.73
2018-11-06T10:25:51.389Z,23.23
2018-11-06T10:28:19.742Z,23.00
2018-11-06T10:30:48.255Z,23.67
2018-11-06T10:33:16.551Z,22.27
2018-11-06T10:35:44.942Z,23.17
2018-11-06T10:38:13.343Z,21.80
2018-11-06T10:40:41.654Z,21.03
2018-11-06T10:43:09.988Z,18.80
2018-11-06T10:45:38.363Z,21.40
2018-11-06T10:48:06.687Z,20.73
2018-11-06T10:50:35.035Z,19.87
2018-11-06T10:53:03.372Z,19.93
2018-11-06T10:55:31.791Z,19.73
2018-11-06T10:58:00.189Z,18.80
2018-11-06T11:00:33.983Z,19.90
2018-11-06T11:03:07.737Z,19.30
2018-11-06T11:05:36.082Z,20.30
2018-11-06T11:08:04.679Z,17.60
2018-11-06T11:10:33.033Z,18.97
2018-11-06T11:13:01.376Z,17.90
2018-11-06T11:15:29.745Z,15.30
2018-11-06T11:17:58.074Z,18.00
2018-11-06T11:20:26.480Z,17.50
2018-11-06T11:22:54.814Z,16.40
2018-11-06T11:25:23.166Z,18.77
2018-11-06T11:27:51.534Z,15.73
2018-11-06T11:30:19.885Z,16.67
2018-11-06T11:32:48.798Z,18.80
2018-11-06T11:35:17.389Z,15.97
2018-11-06T11:37:45.790Z,18.03
2018-11-06T11:40:15.073Z,15.63
2018-11-06T11:42:43.730Z,17.90
2018-11-06T11:45:13.158Z,18.40
2018-11-06T11:47:41.727Z,17.53
2018-11-06T11:50:11.552Z,16.40
2018-11-06T11:52:39.921Z,17.13
2018-11-06T11:55:08.649Z,18.53
2018-11-06T11:57:37.051Z,16.27
2018-11-06T12:00:06.965Z,14.73
2018-11-06T12:02:35.302Z,16.40
2018-11-06T12:05:03.667Z,16.33
2018-11-06T12:07:32.002Z,16.23
2018-11-06T12:10:00.353Z,16.17
2018-11-06T12:12:28.691Z,17.07
2018-11-06T12:14:57.034Z,16.57
2018-11-06T12:17:25.433Z,16.63
2018-11-06T12:19:53.782Z,17.43
2018-11-06T12:22:22.106Z,16.27
2018-11-06T12:24:50.592Z,14.23
2018-11-06T12:27:18.810Z,14.30
2018-11-06T12:29:47.150Z,13.43
2018-11-06T12:32:15.499Z,14.70
2018-11-06T12:34:43.830Z,13.67
2018-11-06T12:37:12.191Z,14.80
2018-11-06T12:39:40.554Z,13.63
2018-11-06T12:42:08.967Z,13.70
2018-11-06T12:44:37.484Z,14.57
2018-11-06T12:47:05.915Z,13.87
2018-11-06T12:49:34.269Z,13.87
2018-11-06T12:52:02.610Z,12.40
2018-11-06T12:54:30.946Z,14.27
2018-11-06T12:56:59.294Z,13.90
2018-11-06T12:59:27.642Z,12.73
2018-11-06T13:01:55.990Z,13.77
2018-11-06T13:04:24.322Z,12.57
2018-11-06T13:06:52.658Z,13.50
2018-11-06T13:09:20.985Z,13.40
2018-11-06T13:11:49.338Z,13.37
2018-11-06T13:14:17.694Z,12.97
2018-11-06T13:16:46.042Z,11.33
2018-11-06T13:19:14.388Z,13.93
2018-11-06T13:21:42.734Z,12.67
2018-11-06T13:24:11.054Z,12.57
2018-11-06T13:26:39.567Z,12.03
2018-11-06T13:29:07.817Z,13.00
2018-11-06T13:31:36.211Z,13.60
2018-11-06T13:34:04.885Z,13.33
2018-11-06T13:36:33.235Z,12.40
2018-11-06T13:39:01.555Z,13.30
2018-11-06T13:41:29.898Z,12.70
2018-11-06T13:43:58.542Z,12.53
2018-11-06T13:46:26.610Z,12.70
2018-11-06T13:48:54.940Z,12.10
2018-11-06T13:51:23.286Z,11.47
2018-11-06T13:53:51.609Z,11.23
2018-11-06T13:56:19.962Z,10.87
2018-11-06T13:58:48.285Z,11.37
2018-11-06T14:01:16.626Z,11.00
2018-11-06T14:03:44.950Z,11.83
2018-11-06T14:06:13.331Z,11.43
2018-11-06T14:08:41.657Z,12.47
2018-11-06T14:11:10.006Z,11.03
2018-11-06T14:13:38.330Z,11.73
2018-11-06T14:16:06.683Z,12.50
2018-11-06T14:18:35.305Z,10.47
2018-11-06T14:21:03.684Z,12.30
2018-11-06T14:23:32.022Z,11.73
2018-11-06T14:26:00.402Z,11.10
2018-11-06T14:28:28.722Z,13.60
2018-11-06T14:30:57.070Z,11.70
2018-11-06T14:33:25.398Z,9.23
2018-11-06T14:35:53.765Z,9.17
2018-11-06T14:38:22.094Z,9.27
2018-11-06T14:40:50.422Z,9.57
2018-11-06T14:43:18.775Z,8.93
2018-11-06T14:45:47.162Z,7.70
2018-11-06T14:48:15.544Z,7.57
2018-11-06T14:50:43.855Z,5.47
2018-11-06T14:53:12.203Z,5.20
2018-11-06T14:55:40.537Z,5.00
2018-11-06T14:58:08.916Z,5.10
2018-11-06T15:00:37.225Z,5.03
2018-11-06T15:03:06.017Z,4.93
2018-11-06T15:05:34.358Z,4.90
2018-11-06T15:08:02.712Z,4.50
2018-11-06T15:10:31.113Z,4.60
2018-11-06T15:12:59.456Z,5.63
2018-11-06T15:15:27.799Z,4.87
2018-11-06T15:17:56.160Z,4.77
2018-11-06T15:20:24.498Z,5.10
2018-11-06T15:22:52.915Z,4.93
2018-11-06T15:25:21.270Z,5.40
2018-11-06T15:27:49.614Z,5.40
2018-11-06T15:30:18.779Z,5.37
2018-11-06T15:32:47.133Z,5.70
2018-11-06T15:35:16.975Z,5.23
2018-11-06T15:37:45.313Z,4.90
2018-11-06T15:40:15.484Z,4.70
2018-11-06T15:42:43.945Z,5.10
2018-11-06T15:45:13.563Z,5.33
2018-11-06T15:47:42.673Z,5.70
2018-11-06T15:50:12.766Z,5.30
2018-11-06T15:52:41.531Z,5.30
2018-11-06T15:55:09.858Z,5.40
2018-11-06T15:57:38.547Z,5.83
2018-11-06T16:00:11.349Z,5.70
2018-11-06T16:02:39.730Z,4.43
2018-11-06T16:05:08.152Z,5.50
2018-11-06T16:07:36.867Z,4.90
2018-11-06T16:10:07.534Z,5.13
2018-11-06T16:12:35.951Z,4.80
2018-11-06T16:15:04.947Z,4.93
2018-11-06T16:17:33.415Z,5.90
2018-11-06T16:20:01.733Z,4.83
2018-11-06T16:22:30.424Z,4.70
2018-11-06T16:24:58.769Z,4.80
2018-11-06T16:27:27.106Z,5.00
2018-11-06T16:29:55.420Z,5.03
2018-11-06T16:32:23.766Z,5.13
2018-11-06T16:34:52.090Z,4.80
2018-11-06T16:37:20.903Z,5.20
2018-11-06T16:39:49.230Z,5.73
2018-11-06T16:42:17.667Z,5.50
2018-11-06T16:44:46.029Z,5.33
2018-11-06T16:47:14.396Z,5.50
2018-11-06T16:49:42.740Z,5.47
2018-11-06T16:52:11.182Z,5.27
2018-11-06T16:54:39.494Z,5.27
2018-11-06T16:57:08.007Z,5.30
2018-11-06T16:59:36.433Z,5.47
2018-11-06T17:02:05.118Z,5.73
2018-11-06T17:04:33.534Z,5.67
2018-11-06T17:07:02.687Z,5.63
2018-11-06T17:09:31.747Z,5.57
2018-11-06T17:12:00.085Z,5.90
2018-11-06T17:14:28.468Z,5.80
2018-11-06T17:16:56.804Z,6.03
2018-11-06T17:19:25.250Z,5.90
2018-11-06T17:21:53.596Z,5.50
2018-11-06T17:24:22.010Z,5.83
2018-11-06T17:26:50.357Z,5.30
2018-11-06T17:29:18.761Z,5.57
2018-11-06T17:31:47.122Z,5.77
2018-11-06T17:34:15.537Z,6.43
2018-11-06T17:36:43.863Z,6.03
2018-11-06T17:39:13.443Z,5.57
2018-11-06T17:41:41.783Z,6.07
2018-11-06T17:44:10.144Z,6.53
2018-11-06T17:46:38.471Z,6.20
2018-11-06T17:49:06.910Z,6.70
2018-11-06T17:51:35.237Z,6.17
2018-11-06T17:54:03.673Z,6.73
2018-11-06T17:56:32.029Z,6.63
2018-11-06T17:59:00.379Z,5.83
2018-11-06T18:01:28.705Z,6.43
2018-11-06T18:03:57.095Z,6.23
2018-11-06T18:06:26.035Z,6.63
2018-11-06T18:08:54.438Z,6.87
2018-11-06T18:11:22.829Z,6.87
2018-11-06T18:13:51.228Z,7.07
2018-11-06T18:16:19.559Z,6.07
2018-11-06T18:18:47.902Z,7.00
2018-11-06T18:21:16.219Z,6.40
2018-11-06T18:23:44.627Z,7.57
2018-11-06T18:26:12.955Z,6.97
2018-11-06T18:28:41.302Z,7.00
2018-11-06T18:31:09.658Z,7.43
2018-11-06T18:33:38.022Z,7.20
2018-11-06T18:36:06.466Z,8.10
2018-11-06T18:38:35.066Z,7.93
2018-11-06T18:41:03.418Z,8.27
2018-11-06T18:43:31.789Z,6.87
2018-11-06T18:46:00.121Z,7.97
2018-11-06T18:48:28.521Z,7.93
2018-11-06T18:50:56.891Z,7.93
2018-11-06T18:53:25.296Z,8.73
2018-11-06T18:55:53.630Z,8.57
2018-11-06T18:58:22.008Z,8.50
2018-11-06T19:00:50.512Z,7.70
2018-11-06T19:03:19.010Z,8.03
2018-11-06T19:05:47.339Z,7.97
2018-11-06T19:08:15.754Z,8.10
2018-11-06T19:10:44.114Z,8.67
2018-11-06T19:13:12.454Z,10.00
2018-11-06T19:15:40.873Z,7.93
2018-11-06T19:18:09.227Z,8.70
2018-11-06T19:20:37.630Z,8.43
2018-11-06T19:23:05.954Z,9.40
2018-11-06T19:25:34.290Z,8.67
2018-11-06T19:28:02.722Z,7.70
2018-11-06T19:30:31.152Z,8.97
2018-11-06T19:32:59.530Z,8.63
2018-11-06T19:35:27.885Z,8.63
2018-11-06T19:37:56.219Z,9.17
2018-11-06T19:40:24.601Z,10.30
2018-11-06T19:42:52.929Z,8.60
2018-11-06T19:45:21.300Z,9.73
2018-11-06T19:47:49.625Z,9.07
2018-11-06T19:50:19.171Z,10.37
2018-11-06T19:52:47.605Z,9.33
2018-11-06T19:55:16.941Z,8.50
2018-11-06T19:57:45.315Z,8.50
2018-11-06T20:00:45.782Z,9.63
2018-11-06T20:03:14.079Z,8.03
2018-11-06T20:05:42.595Z,9.60
2018-11-06T20:08:10.826Z,10.50
2018-11-06T20:10:39.223Z,8.40
2018-11-06T20:13:07.542Z,9.30
2018-11-06T20:15:35.894Z,8.97
2018-11-06T20:18:04.365Z,9.57
2018-11-06T20:20:32.682Z,9.37
2018-11-06T20:23:01.001Z,9.20
2018-11-06T20:25:29.344Z,8.73
2018-11-06T20:27:57.679Z,9.27
2018-11-06T20:30:26.917Z,9.50
2018-11-06T20:32:55.245Z,9.53
2018-11-06T20:35:23.731Z,9.80
2018-11-06T20:37:52.391Z,10.57
2018-11-06T20:40:22.179Z,9.63
2018-11-06T20:42:50.669Z,10.23
2018-11-06T20:45:19.857Z,10.90
2018-11-06T20:47:48.262Z,9.13
2018-11-06T20:50:18.826Z,9.43
2018-11-06T20:52:47.501Z,10.87
2018-11-06T20:55:16.573Z,8.80
2018-11-06T20:57:44.919Z,10.50
2018-11-06T21:00:22.437Z,10.50
2018-11-06T21:02:51.601Z,9.90
2018-11-06T21:05:19.982Z,11.03
2018-11-06T21:07:48.653Z,11.07
2018-11-06T21:10:18.422Z,11.37
2018-11-06T21:12:47.055Z,11.30
2018-11-06T21:15:15.417Z,9.30
2018-11-06T21:17:43.901Z,12.17
2018-11-06T21:20:13.295Z,10.30
2018-11-06T21:22:41.602Z,10.17
2018-11-06T21:25:10.319Z,9.87
2018-11-06T21:27:39.583Z,9.70
2018-11-06T21:30:10.851Z,11.63
2018-11-06T21:32:40.092Z,10.80
2018-11-06T21:35:08.439Z,9.60
2018-11-06T21:37:37.087Z,11.67
2018-11-06T21:40:07.535Z,10.10
2018-11-06T21:42:35.912Z,10.70
2018-11-06T21:45:04.311Z,9.90
2018-11-06T21:47:32.631Z,10.47
2018-11-06T21:50:00.985Z,11.00
2018-11-06T21:52:29.306Z,10.83
2018-11-06T21:54:57.687Z,10.50
2018-11-06T21:57:26.005Z,11.43
2018-11-06T21:59:54.361Z,11.07
2018-11-06T22:02:22.683Z,10.50
2018-11-06T22:04:51.024Z,9.07
2018-11-06T22:07:19.342Z,10.80
2018-11-06T22:09:47.678Z,9.43
2018-11-06T22:12:16.072Z,9.50
2018-11-06T22:14:44.356Z,9.93
2018-11-06T22:17:12.675Z,11.03
2018-11-06T22:19:41.010Z,11.27
2018-11-06T22:22:09.415Z,11.90
2018-11-06T22:24:37.755Z,11.87
2018-11-06T22:27:06.368Z,10.23
2018-11-06T22:29:34.689Z,11.43
2018-11-06T22:32:03.075Z,10.50
2018-11-06T22:34:31.363Z,11.70
2018-11-06T22:36:59.737Z,13.10
2018-11-06T22:39:28.071Z,19.87
2018-11-06T22:41:56.414Z,12.63
2018-11-06T22:44:24.754Z,18.47
2018-11-06T22:46:53.124Z,14.40
2018-11-06T22:49:21.434Z,13.50
2018-11-06T22:51:49.779Z,19.73
2018-11-06T22:54:18.098Z,24.67
2018-11-06T22:56:46.440Z,25.03
2018-11-06T22:59:14.768Z,27.43
2018-11-06T23:01:43.123Z,26.27
2018-11-06T23:04:11.453Z,27.70
2018-11-06T23:06:39.849Z,31.93
2018-11-06T23:09:09.357Z,31.07
2018-11-06T23:11:37.789Z,32.13
2018-11-06T23:14:06.324Z,33.07
2018-11-06T23:16:34.671Z,28.87
2018-11-06T23:19:03.031Z,33.83
2018-11-06T23:21:31.372Z,29.27
2018-11-06T23:23:59.697Z,26.27
2018-11-06T23:26:28.064Z,28.83
2018-11-06T23:28:56.417Z,17.73
2018-11-06T23:31:24.823Z,19.27
2018-11-06T23:33:53.109Z,17.73
2018-11-06T23:36:21.469Z,18.03
2018-11-06T23:38:49.802Z,22.87
2018-11-06T23:41:18.138Z,27.13
2018-11-06T23:43:46.486Z,18.17
2018-11-06T23:46:14.829Z,20.10
2018-11-06T23:48:43.153Z,18.63
2018-11-06T23:51:11.515Z,20.20
2018-11-06T23:53:39.854Z,15.80
2018-11-06T23:56:08.193Z,13.80
2018-11-06T23:58:36.550Z,12.80
